createdAt,value
2023-04-17T00:02:00.687Z,5.60
2023-04-17T00:04:28.059Z,5.70
2023-04-17T00:06:55.189Z,6.65
2023-04-17T00:09:22.509Z,6.40
2023-04-17T00:11:49.556Z,6.80
2023-04-17T00:14:16.732Z,6.53
2023-04-17T00:16:43.785Z,6.53
2023-04-17T00:19:11.060Z,6.63
2023-04-17T00:21:38.611Z,7.30
2023-04-17T00:24:06.001Z,6.72
2023-04-17T00:26:33.049Z,6.95
2023-04-17T00:29:01.460Z,6.53
2023-04-17T00:31:30.978Z,7.00
2023-04-17T00:33:59.017Z,6.75
2023-04-17T00:36:27.393Z,7.32
2023-04-17T00:38:54.521Z,10.00
2023-04-17T00:41:21.580Z,8.35
2023-04-17T00:43:48.683Z,7.45
2023-04-17T00:46:16.504Z,6.95
2023-04-17T00:48:44.380Z,6.53
2023-04-17T00:51:12.070Z,6.45
2023-04-17T00:53:40.156Z,7.65
2023-04-17T00:56:07.816Z,7.03
2023-04-17T00:58:37.243Z,7.10
2023-04-17T01:01:06.124Z,7.20
2023-04-17T01:03:33.799Z,6.95
2023-04-17T01:06:02.191Z,6.25
2023-04-17T01:08:44.269Z,6.78
2023-04-17T01:11:12.101Z,6.50
2023-04-17T01:13:55.408Z,6.72
2023-04-17T01:16:24.265Z,6.93
2023-04-17T01:18:51.645Z,6.60
2023-04-17T01:21:18.994Z,6.00
2023-04-17T01:23:51.854Z,5.60
2023-04-17T01:26:23.304Z,5.43
2023-04-17T01:28:52.050Z,5.68
2023-04-17T01:31:19.561Z,5.53
2023-04-17T01:33:47.502Z,5.15
2023-04-17T01:36:15.114Z,5.03
2023-04-17T01:38:42.626Z,4.90
2023-04-17T01:41:10.269Z,4.90
2023-04-17T01:43:39.271Z,5.53
2023-04-17T01:46:06.938Z,5.32
2023-04-17T01:48:34.471Z,5.07
2023-04-17T01:51:01.738Z,4.93
2023-04-17T01:53:33.746Z,4.28
2023-04-17T01:56:02.009Z,4.68
2023-04-17T01:58:30.480Z,4.40
2023-04-17T02:00:57.721Z,3.90
2023-04-17T02:03:25.056Z,4.47
2023-04-17T02:05:53.806Z,4.05
2023-04-17T02:08:21.300Z,4.20
2023-04-17T02:10:48.389Z,3.70
2023-04-17T02:13:16.030Z,4.18
2023-04-17T02:15:43.291Z,3.60
2023-04-17T02:18:10.753Z,3.65
2023-04-17T02:20:38.613Z,3.88
2023-04-17T02:23:07.038Z,3.60
2023-04-17T02:25:34.611Z,3.45
2023-04-17T02:28:01.988Z,3.75
2023-04-17T02:30:29.265Z,3.28
2023-04-17T02:32:58.480Z,3.65
2023-04-17T02:35:28.865Z,3.60
2023-04-17T02:37:57.624Z,3.58
2023-04-17T02:40:24.826Z,3.20
2023-04-17T02:42:58.492Z,3.60
2023-04-17T02:45:25.684Z,3.60
2023-04-17T02:47:52.748Z,3.38
2023-04-17T02:50:20.474Z,3.60
2023-04-17T02:53:04.007Z,3.95
2023-04-17T02:55:31.212Z,3.50
2023-04-17T02:57:58.279Z,3.47
2023-04-17T03:00:26.409Z,3.40
2023-04-17T03:02:53.790Z,3.50
2023-04-17T03:05:23.331Z,3.75
2023-04-17T03:07:52.233Z,3.22
2023-04-17T03:10:19.827Z,3.10
2023-04-17T03:12:47.001Z,3.72
2023-04-17T03:15:14.301Z,3.63
2023-04-17T03:17:41.583Z,3.47
2023-04-17T03:20:09.521Z,3.50
2023-04-17T03:22:36.823Z,3.00
2023-04-17T03:25:06.462Z,3.42
2023-04-17T03:27:43.523Z,3.30
2023-04-17T03:30:12.354Z,3.35
2023-04-17T03:32:40.919Z,3.28
2023-04-17T03:35:08.439Z,5.82
2023-04-17T03:37:36.271Z,4.70
2023-04-17T03:40:05.720Z,4.97
2023-04-17T03:42:32.890Z,4.20
2023-04-17T03:45:00.092Z,19.20
2023-04-17T03:47:28.414Z,4.72
2023-04-17T03:49:56.763Z,2.90
2023-04-17T03:52:24.823Z,3.55
2023-04-17T03:54:55.721Z,3.50
2023-04-17T03:57:23.009Z,4.03
2023-04-17T03:59:50.307Z,5.75
2023-04-17T04:02:18.628Z,5.30
2023-04-17T04:04:48.273Z,5.32
2023-04-17T04:07:16.796Z,4.38
2023-04-17T04:09:45.160Z,4.25
2023-04-17T04:12:12.812Z,3.30
2023-04-17T04:14:42.759Z,3.90
2023-04-17T04:17:10.832Z,3.50
2023-04-17T04:19:39.290Z,3.70
2023-04-17T04:22:07.968Z,3.60
2023-04-17T04:24:41.668Z,3.70
2023-04-17T04:27:09.336Z,3.42
2023-04-17T04:29:37.925Z,2.92
2023-04-17T04:32:09.793Z,4.18
2023-04-17T04:34:44.641Z,4.35
2023-04-17T04:37:15.778Z,3.70
2023-04-17T04:39:47.336Z,3.75
2023-04-17T04:42:22.456Z,3.20
2023-04-17T04:44:57.413Z,3.38
2023-04-17T04:47:28.667Z,3.25
2023-04-17T04:49:55.953Z,3.45
2023-04-17T04:52:23.645Z,3.70
2023-04-17T04:54:54.455Z,4.28
2023-04-17T04:57:22.002Z,3.38
2023-04-17T04:59:53.678Z,3.25
2023-04-17T05:02:30.268Z,3.25
2023-04-17T05:04:57.932Z,3.05
2023-04-17T05:07:26.062Z,3.20
2023-04-17T05:09:53.937Z,3.72
2023-04-17T05:12:21.454Z,3.97
2023-04-17T05:14:49.446Z,3.53
2023-04-17T05:17:19.175Z,3.22
2023-04-17T05:19:46.762Z,3.00
2023-04-17T05:22:15.225Z,3.50
2023-04-17T05:24:58.053Z,4.40
2023-04-17T05:27:27.043Z,4.70
2023-04-17T05:29:54.708Z,3.90
2023-04-17T05:32:21.962Z,4.40
2023-04-17T05:35:01.563Z,4.10
2023-04-17T05:37:30.123Z,3.00
2023-04-17T05:39:57.425Z,3.33
2023-04-17T05:42:24.520Z,3.50
2023-04-17T05:44:52.031Z,3.50
2023-04-17T05:47:19.446Z,3.70
2023-04-17T05:49:46.636Z,3.13
2023-04-17T05:52:13.923Z,3.75
2023-04-17T05:54:44.283Z,3.50
2023-04-17T05:57:11.540Z,3.20
2023-04-17T05:59:38.790Z,3.03
2023-04-17T06:02:08.527Z,3.40
2023-04-17T06:04:36.308Z,3.95
2023-04-17T06:07:06.203Z,3.60
2023-04-17T06:09:34.711Z,3.10
2023-04-17T06:12:01.840Z,2.80
2023-04-17T06:14:29.371Z,2.72
2023-04-17T06:16:56.612Z,2.35
2023-04-17T06:19:24.360Z,10.05
2023-04-17T06:21:51.598Z,3.25
2023-04-17T06:24:19.818Z,4.97
2023-04-17T06:26:48.117Z,4.30
2023-04-17T06:29:15.829Z,2.80
2023-04-17T06:31:43.984Z,3.25
2023-04-17T06:34:11.544Z,3.10
2023-04-17T06:36:42.390Z,3.22
2023-04-17T06:39:09.834Z,3.35
2023-04-17T06:41:37.000Z,3.70
2023-04-17T06:44:04.272Z,3.35
2023-04-17T06:46:51.155Z,3.67
2023-04-17T06:49:18.328Z,3.30
2023-04-17T06:51:46.109Z,3.00
2023-04-17T06:54:14.526Z,3.58
2023-04-17T06:56:41.722Z,3.70
2023-04-17T06:59:09.999Z,13.77
2023-04-17T07:01:38.424Z,11.98
2023-04-17T07:04:06.077Z,9.30
2023-04-17T07:06:34.706Z,7.93
2023-04-17T07:09:02.080Z,5.63
2023-04-17T07:11:30.216Z,3.53
2023-04-17T07:13:57.390Z,3.60
2023-04-17T07:16:24.574Z,3.53
2023-04-17T07:18:52.437Z,3.55
2023-04-17T07:21:19.678Z,2.83
2023-04-17T07:23:47.167Z,3.10
2023-04-17T07:26:14.382Z,3.03
2023-04-17T07:28:41.527Z,2.50
2023-04-17T07:31:09.347Z,2.15
2023-04-17T07:33:40.087Z,2.65
2023-04-17T07:36:11.256Z,2.90
2023-04-17T07:38:40.800Z,2.63
2023-04-17T07:41:08.371Z,2.30
2023-04-17T07:43:35.775Z,2.10
2023-04-17T07:46:02.940Z,2.33
2023-04-17T07:48:30.051Z,2.40
2023-04-17T07:51:00.669Z,2.20
2023-04-17T07:53:28.596Z,2.10
2023-04-17T07:55:56.285Z,2.38
2023-04-17T07:58:24.202Z,2.28
2023-04-17T08:00:52.128Z,1.85
2023-04-17T08:03:24.506Z,2.35
2023-04-17T08:05:54.307Z,2.17
2023-04-17T08:08:23.757Z,1.77
2023-04-17T08:10:51.269Z,2.05
2023-04-17T08:13:18.466Z,1.85
2023-04-17T08:15:45.927Z,2.10
2023-04-17T08:18:13.919Z,2.20
2023-04-17T08:20:41.108Z,2.40
2023-04-17T08:23:08.250Z,2.38
2023-04-17T08:25:35.445Z,2.60
2023-04-17T08:28:02.691Z,2.92
2023-04-17T08:30:31.130Z,3.00
2023-04-17T08:32:58.314Z,2.80
2023-04-17T08:35:26.737Z,3.25
2023-04-17T08:37:56.040Z,3.45
2023-04-17T08:40:25.076Z,3.35
2023-04-17T08:42:53.486Z,4.03
2023-04-17T08:45:22.928Z,4.50
2023-04-17T08:47:50.281Z,4.60
2023-04-17T08:50:19.970Z,5.05
2023-04-17T08:52:48.950Z,5.00
2023-04-17T08:55:19.038Z,5.40
2023-04-17T08:57:54.132Z,5.22
2023-04-17T09:00:37.826Z,5.97
2023-04-17T09:03:08.646Z,5.70
2023-04-17T09:05:37.308Z,5.38
2023-04-17T09:08:11.483Z,5.28
2023-04-17T09:10:40.973Z,5.70
2023-04-17T09:13:09.182Z,5.60
2023-04-17T09:15:37.754Z,5.88
2023-04-17T09:18:04.987Z,5.78
2023-04-17T09:20:33.022Z,6.18
2023-04-17T09:23:03.147Z,5.15
2023-04-17T09:25:30.605Z,5.38
2023-04-17T09:28:15.738Z,5.88
2023-04-17T09:30:43.241Z,5.75
2023-04-17T09:33:11.964Z,5.93
2023-04-17T09:35:39.869Z,6.32
2023-04-17T09:38:07.279Z,5.63
2023-04-17T09:40:42.935Z,5.82
2023-04-17T09:43:10.903Z,5.75
2023-04-17T09:45:41.805Z,6.30
2023-04-17T09:48:11.457Z,6.32
2023-04-17T09:50:39.196Z,5.55
2023-04-17T09:53:08.077Z,5.15
2023-04-17T09:55:38.181Z,5.40
2023-04-17T09:58:07.606Z,5.50
2023-04-17T10:00:36.942Z,5.63
2023-04-17T10:03:04.761Z,5.53
2023-04-17T10:05:32.606Z,5.38
2023-04-17T10:08:00.637Z,5.82
2023-04-17T10:10:31.266Z,5.93
2023-04-17T10:13:00.934Z,5.53
2023-04-17T10:15:29.236Z,5.45
2023-04-17T10:18:16.399Z,5.55
2023-04-17T10:20:44.994Z,5.35
2023-04-17T10:23:27.157Z,5.60
2023-04-17T10:26:34.046Z,6.10
2023-04-17T10:29:01.282Z,5.43
2023-04-17T10:32:08.240Z,5.60
2023-04-17T10:34:38.164Z,5.10
2023-04-17T10:37:05.483Z,5.32
2023-04-17T10:39:51.629Z,5.78
2023-04-17T10:42:21.313Z,5.45
2023-04-17T10:44:49.293Z,6.28
2023-04-17T10:47:20.737Z,5.82
2023-04-17T10:49:58.713Z,5.43
2023-04-17T10:52:34.648Z,5.68
2023-04-17T10:55:10.560Z,5.15
2023-04-17T10:58:00.504Z,5.93
2023-04-17T11:00:32.344Z,4.95
2023-04-17T11:03:02.286Z,5.50
2023-04-17T11:05:31.426Z,5.55
2023-04-17T11:07:59.536Z,5.28
2023-04-17T11:10:26.833Z,5.85
2023-04-17T11:12:56.577Z,5.80
2023-04-17T11:15:30.808Z,5.30
2023-04-17T11:17:59.595Z,5.70
2023-04-17T11:20:30.431Z,5.60
2023-04-17T11:23:02.525Z,5.43
2023-04-17T11:25:31.686Z,5.97
2023-04-17T11:28:01.536Z,5.63
2023-04-17T11:30:35.022Z,6.00
2023-04-17T11:33:05.182Z,5.57
2023-04-17T11:35:34.734Z,5.57
2023-04-17T11:38:22.775Z,5.13
2023-04-17T11:40:53.034Z,5.43
2023-04-17T11:43:22.078Z,5.68
2023-04-17T11:45:52.183Z,5.40
2023-04-17T11:48:23.139Z,5.47
2023-04-17T11:50:54.868Z,5.05
2023-04-17T11:53:22.401Z,5.35
2023-04-17T11:56:09.420Z,5.28
2023-04-17T11:58:49.576Z,5.10
2023-04-17T12:01:18.123Z,5.70
2023-04-17T12:03:47.748Z,6.00
2023-04-17T12:06:15.305Z,5.25
2023-04-17T12:08:45.139Z,5.78
2023-04-17T12:11:25.085Z,4.82
2023-04-17T12:13:54.635Z,5.25
2023-04-17T12:16:22.675Z,5.40
2023-04-17T12:18:49.821Z,5.70
2023-04-17T12:21:17.306Z,5.65
2023-04-17T12:23:44.405Z,5.28
2023-04-17T12:26:11.605Z,5.13
2023-04-17T12:28:38.995Z,5.65
2023-04-17T12:31:06.612Z,5.72
2023-04-17T12:33:34.412Z,5.32
2023-04-17T12:36:02.792Z,5.85
2023-04-17T12:38:30.748Z,5.45
2023-04-17T12:40:57.937Z,6.18
2023-04-17T12:43:25.068Z,6.43
2023-04-17T12:45:53.518Z,6.80
2023-04-17T12:48:20.773Z,5.63
2023-04-17T12:50:47.828Z,5.60
2023-04-17T12:53:15.798Z,6.13
2023-04-17T12:55:44.527Z,5.97
2023-04-17T12:58:13.186Z,5.82
2023-04-17T13:00:43.937Z,5.07
2023-04-17T13:03:12.391Z,5.43
2023-04-17T13:05:39.908Z,5.35
2023-04-17T13:08:12.438Z,5.55
2023-04-17T13:10:39.704Z,5.70
2023-04-17T13:13:06.895Z,5.32
2023-04-17T13:15:34.400Z,5.38
2023-04-17T13:18:02.393Z,5.60
2023-04-17T13:20:30.004Z,5.93
2023-04-17T13:22:58.458Z,5.40
2023-04-17T13:25:26.402Z,5.40
2023-04-17T13:27:55.264Z,5.43
2023-04-17T13:30:23.041Z,5.28
2023-04-17T13:32:50.363Z,5.60
2023-04-17T13:35:18.043Z,5.50
2023-04-17T13:37:45.186Z,5.82
2023-04-17T13:40:12.699Z,5.35
2023-04-17T13:42:39.766Z,5.35
2023-04-17T13:45:08.133Z,6.35
2023-04-17T13:47:35.325Z,5.63
2023-04-17T13:50:02.557Z,5.93
2023-04-17T13:52:29.688Z,5.18
2023-04-17T13:54:56.737Z,5.18
2023-04-17T13:57:23.869Z,5.55
2023-04-17T13:59:50.945Z,5.75
2023-04-17T14:02:18.251Z,5.63
2023-04-17T14:04:45.780Z,5.60
2023-04-17T14:07:15.413Z,5.43
2023-04-17T14:09:42.676Z,5.10
2023-04-17T14:12:09.878Z,4.85
2023-04-17T14:14:37.056Z,5.40
2023-04-17T14:17:04.264Z,5.72
2023-04-17T14:19:32.160Z,5.03
2023-04-17T14:21:59.315Z,6.22
2023-04-17T14:24:26.440Z,6.20
2023-04-17T14:26:53.670Z,5.05
2023-04-17T14:29:21.335Z,5.35
2023-04-17T14:31:48.592Z,5.30
2023-04-17T14:34:15.980Z,5.75
2023-04-17T14:36:43.636Z,5.45
2023-04-17T14:39:11.232Z,6.05
2023-04-17T14:41:38.703Z,6.25
2023-04-17T14:44:05.955Z,5.18
2023-04-17T14:46:33.152Z,5.38
2023-04-17T14:49:00.360Z,5.35
2023-04-17T14:51:28.426Z,5.53
2023-04-17T14:53:55.672Z,5.40
2023-04-17T14:56:22.728Z,5.25
2023-04-17T14:58:49.886Z,5.20
2023-04-17T15:01:17.000Z,4.97
2023-04-17T15:03:46.778Z,4.93
2023-04-17T15:06:15.781Z,5.53
2023-04-17T15:08:42.916Z,5.47
2023-04-17T15:11:10.544Z,4.75
2023-04-17T15:13:39.587Z,5.63
2023-04-17T15:16:08.976Z,5.25
2023-04-17T15:18:36.261Z,5.70
2023-04-17T15:21:03.415Z,5.07
2023-04-17T15:23:30.612Z,5.18
2023-04-17T15:25:58.160Z,4.97
2023-04-17T15:28:25.503Z,5.15
2023-04-17T15:30:52.741Z,5.22
2023-04-17T15:33:20.433Z,5.30
2023-04-17T15:35:47.765Z,5.25
2023-04-17T15:38:14.908Z,5.65
2023-04-17T15:40:42.090Z,5.72
2023-04-17T15:43:10.715Z,5.13
2023-04-17T15:45:38.085Z,5.57
2023-04-17T15:48:05.408Z,5.40
2023-04-17T15:50:32.643Z,5.60
2023-04-17T15:52:59.986Z,5.65
2023-04-17T15:55:27.202Z,5.10
2023-04-17T15:57:54.585Z,5.28
2023-04-17T16:00:22.225Z,5.47
2023-04-17T16:02:49.472Z,5.10
2023-04-17T16:05:17.719Z,5.28
2023-04-17T16:07:45.591Z,5.13
2023-04-17T16:10:14.664Z,5.25
2023-04-17T16:12:43.443Z,4.65
2023-04-17T16:15:16.413Z,4.82
2023-04-17T16:17:44.357Z,4.45
2023-04-17T16:20:11.898Z,5.00
2023-04-17T16:22:38.974Z,5.38
2023-04-17T16:25:06.733Z,4.97
2023-04-17T16:27:34.239Z,5.35
2023-04-17T16:30:02.454Z,5.20
2023-04-17T16:32:31.768Z,4.93
2023-04-17T16:34:59.089Z,5.35
2023-04-17T16:37:26.515Z,5.30
2023-04-17T16:39:53.669Z,4.95
2023-04-17T16:42:20.761Z,5.50
2023-04-17T16:44:47.992Z,4.82
2023-04-17T16:47:15.434Z,5.75
2023-04-17T16:49:43.126Z,5.45
2023-04-17T16:52:10.517Z,5.57
2023-04-17T16:54:37.723Z,6.15
2023-04-17T16:57:06.025Z,6.10
2023-04-17T16:59:33.709Z,7.00
2023-04-17T17:02:02.693Z,6.00
2023-04-17T17:04:30.674Z,6.18
2023-04-17T17:06:58.044Z,6.55
2023-04-17T17:09:26.053Z,6.63
2023-04-17T17:11:53.493Z,6.43
2023-04-17T17:14:20.687Z,5.38
2023-04-17T17:16:48.059Z,6.28
2023-04-17T17:19:15.588Z,5.90
2023-04-17T17:21:42.827Z,6.65
2023-04-17T17:24:10.116Z,6.20
2023-04-17T17:26:37.356Z,6.03
2023-04-17T17:29:04.886Z,6.63
2023-04-17T17:31:34.499Z,6.75
2023-04-17T17:34:16.784Z,6.70
2023-04-17T17:36:49.749Z,6.43
2023-04-17T17:39:16.992Z,5.90
2023-04-17T17:41:47.080Z,6.28
2023-04-17T17:44:15.008Z,6.57
2023-04-17T17:46:42.676Z,6.03
2023-04-17T17:49:10.346Z,6.03
2023-04-17T17:51:37.424Z,6.43
2023-04-17T17:54:04.856Z,6.72
2023-04-17T17:56:32.220Z,6.18
2023-04-17T17:58:59.489Z,5.70
2023-04-17T18:01:26.562Z,6.10
2023-04-17T18:03:54.188Z,6.07
2023-04-17T18:06:21.745Z,6.10
2023-04-17T18:08:51.199Z,6.00
2023-04-17T18:11:18.388Z,6.40
2023-04-17T18:13:45.729Z,6.43
2023-04-17T18:16:12.835Z,6.55
2023-04-17T18:18:40.041Z,7.20
2023-04-17T18:21:08.217Z,7.38
2023-04-17T18:23:36.408Z,8.25
2023-04-17T18:26:04.394Z,8.40
2023-04-17T18:28:32.840Z,7.78
2023-04-17T18:31:00.481Z,8.02
2023-04-17T18:33:28.999Z,7.20
2023-04-17T18:35:56.334Z,7.88
2023-04-17T18:38:23.800Z,7.90
2023-04-17T18:40:59.783Z,8.43
2023-04-17T18:43:28.136Z,7.38
2023-04-17T18:45:55.693Z,7.25
2023-04-17T18:48:24.618Z,7.85
2023-04-17T18:50:52.352Z,8.38
2023-04-17T18:53:20.113Z,8.50
2023-04-17T18:55:47.584Z,7.97
2023-04-17T18:58:15.254Z,8.75
2023-04-17T19:00:42.945Z,8.95
2023-04-17T19:03:10.657Z,7.72
2023-04-17T19:05:38.117Z,16.77
2023-04-17T19:08:07.035Z,13.18
2023-04-17T19:10:34.330Z,9.80
2023-04-17T19:13:01.536Z,8.75
2023-04-17T19:15:28.665Z,8.35
2023-04-17T19:17:58.058Z,8.70
2023-04-17T19:20:25.563Z,9.50
2023-04-17T19:22:52.821Z,9.10
2023-04-17T19:25:20.177Z,8.15
2023-04-17T19:27:47.624Z,8.32
2023-04-17T19:30:14.756Z,8.77
2023-04-17T19:32:42.422Z,8.95
2023-04-17T19:35:10.222Z,9.70
2023-04-17T19:37:37.499Z,10.00
2023-04-17T19:40:14.183Z,9.35
2023-04-17T19:42:48.968Z,6.88
2023-04-17T19:45:17.545Z,10.27
2023-04-17T19:47:44.902Z,10.85
2023-04-17T19:50:12.530Z,11.85
2023-04-17T19:52:40.346Z,12.60
2023-04-17T19:55:09.310Z,10.68
2023-04-17T19:57:36.692Z,10.63
2023-04-17T20:00:07.959Z,9.60
2023-04-17T20:02:39.700Z,9.90
2023-04-17T20:05:08.346Z,9.80
2023-04-17T20:07:35.686Z,9.75
2023-04-17T20:10:04.012Z,10.65
2023-04-17T20:12:31.820Z,10.32
2023-04-17T20:14:59.144Z,10.80
2023-04-17T20:17:26.682Z,9.20
2023-04-17T20:19:54.291Z,10.15
2023-04-17T20:22:21.840Z,9.85
2023-04-17T20:24:51.023Z,10.60
2023-04-17T20:27:18.725Z,10.63
2023-04-17T20:29:46.099Z,11.18
2023-04-17T20:32:13.542Z,10.35
2023-04-17T20:34:41.020Z,9.95
2023-04-17T20:37:08.475Z,10.30
2023-04-17T20:39:35.704Z,12.57
2023-04-17T20:42:03.275Z,13.02
2023-04-17T20:44:32.737Z,12.82
2023-04-17T20:47:00.157Z,11.52
2023-04-17T20:49:27.799Z,11.75
2023-04-17T20:51:55.011Z,11.07
2023-04-17T20:54:23.434Z,10.82
2023-04-17T20:56:50.559Z,9.80
2023-04-17T20:59:17.969Z,10.30
2023-04-17T21:01:45.265Z,9.73
2023-04-17T21:04:13.061Z,9.10
2023-04-17T21:06:40.385Z,10.20
2023-04-17T21:09:08.873Z,11.00
2023-04-17T21:11:36.104Z,10.77
2023-04-17T21:14:03.903Z,10.57
2023-04-17T21:16:31.487Z,8.98
2023-04-17T21:18:58.796Z,10.05
2023-04-17T21:21:27.169Z,10.18
2023-04-17T21:23:54.212Z,9.18
2023-04-17T21:26:21.516Z,9.27
2023-04-17T21:28:48.950Z,9.20
2023-04-17T21:31:16.278Z,8.95
2023-04-17T21:33:43.441Z,8.15
2023-04-17T21:36:10.518Z,9.50
2023-04-17T21:38:37.685Z,9.23
2023-04-17T21:41:04.801Z,9.15
2023-04-17T21:43:32.302Z,10.40
2023-04-17T21:45:59.392Z,11.05
2023-04-17T21:48:26.718Z,10.48
2023-04-17T21:51:00.908Z,11.25
2023-04-17T21:53:28.044Z,9.85
2023-04-17T21:55:55.050Z,9.82
2023-04-17T21:58:22.636Z,10.70
2023-04-17T22:00:49.771Z,11.20
2023-04-17T22:03:18.276Z,10.82
2023-04-17T22:05:46.501Z,11.23
2023-04-17T22:08:13.536Z,9.93
2023-04-17T22:10:40.618Z,9.93
2023-04-17T22:13:07.882Z,9.43
2023-04-17T22:15:34.978Z,9.82
2023-04-17T22:18:02.596Z,9.25
2023-04-17T22:20:29.746Z,9.77
2023-04-17T22:22:56.827Z,8.50
2023-04-17T22:25:24.069Z,9.50
2023-04-17T22:27:51.436Z,8.82
2023-04-17T22:30:18.687Z,9.02
2023-04-17T22:32:45.956Z,9.15
2023-04-17T22:35:14.334Z,8.88
2023-04-17T22:37:41.525Z,8.98
2023-04-17T22:40:09.144Z,8.10
2023-04-17T22:42:36.309Z,8.88
2023-04-17T22:45:03.546Z,8.25
2023-04-17T22:47:30.648Z,8.48
2023-04-17T22:49:59.073Z,8.68
2023-04-17T22:52:26.101Z,8.30
2023-04-17T22:54:53.975Z,8.63
2023-04-17T22:57:21.401Z,7.97
2023-04-17T22:59:48.578Z,7.57
2023-04-17T23:02:15.592Z,7.63
2023-04-17T23:04:43.106Z,7.88
2023-04-17T23:07:10.196Z,7.93
2023-04-17T23:09:37.715Z,7.55
2023-04-17T23:12:06.420Z,7.18
2023-04-17T23:14:33.836Z,6.90
2023-04-17T23:17:00.991Z,6.90
2023-04-17T23:19:33.008Z,6.68
2023-04-17T23:22:01.422Z,6.65
2023-04-17T23:24:32.122Z,6.35
2023-04-17T23:26:59.283Z,6.28
2023-04-17T23:29:26.615Z,5.53
2023-04-17T23:31:53.770Z,5.18
2023-04-17T23:34:20.961Z,6.53
2023-04-17T23:36:48.118Z,5.43
2023-04-17T23:39:15.277Z,6.07
2023-04-17T23:41:42.925Z,5.15
2023-04-17T23:44:10.014Z,5.75
2023-04-17T23:46:37.634Z,5.35
2023-04-17T23:49:05.654Z,5.35
2023-04-17T23:51:33.082Z,5.47
2023-04-17T23:54:01.106Z,5.38
2023-04-17T23:56:30.181Z,5.22
2023-04-17T23:58:58.056Z,5.60
